Time;durP1;ratioP1;P1;durP2;ratioP2;P2;SDS_P1;SDS_P2;PMS_P1;PMS_P2;Temp;Humidity;BMP_temperature;BMP_pressure;BME280_temperature;BME280_humidity;BME280_pressure;Samples;Min_cycle;Max_cycle;Signal;HPM_P1;HPM_P2
2021/12/08 00:00:33;;;;;;;60.17;29.02;;;;;;;-1.07;85.27;96019.86;1769316;80;21401;-81
2021/12/08 00:03:02;;;;;;;63.98;31.52;;;;;;;-1.06;85.25;96017.66;1757887;80;21505;-82
2021/12/08 00:05:28;;;;;;;63.33;29.90;;;;;;;-1.07;85.22;96013.48;1774225;79;21030;-81
2021/12/08 00:07:54;;;;;;;62.88;30.68;;;;;;;-1.06;85.22;96014.30;1772671;81;21419;-81
2021/12/08 00:13:05;;;;;;;60.52;30.27;;;;;;;-1.18;84.95;96005.05;1752999;80;21084;-81
2021/12/08 00:15:37;;;;;;;60.38;30.82;;;;;;;-1.17;85.21;95994.72;1779028;80;21023;-81
2021/12/08 00:18:05;;;;;;;59.77;30.12;;;;;;;-1.15;85.12;95994.13;1776149;80;20987;-81
2021/12/08 00:20:32;;;;;;;56.85;28.10;;;;;;;-1.20;84.80;95994.97;1781055;80;21027;-81
2021/12/08 00:23:00;;;;;;;55.88;28.32;;;;;;;-1.24;84.79;96006.34;1766938;80;21000;-81
2021/12/08 00:25:26;;;;;;;52.13;27.90;;;;;;;-1.26;84.71;96009.00;1765582;80;21418;-81
2021/12/08 00:27:51;;;;;;;52.33;26.00;;;;;;;-1.26;84.66;96001.36;1775747;80;21025;-81
2021/12/08 00:30:18;;;;;;;54.13;26.87;;;;;;;-1.26;84.47;96001.36;1775510;80;21030;-81
2021/12/08 00:32:44;;;;;;;57.83;30.10;;;;;;;-1.30;84.15;95996.16;1758891;80;21003;-81
2021/12/08 00:35:11;;;;;;;58.63;31.57;;;;;;;-1.32;84.13;95997.18;1756055;80;21481;-81
2021/12/08 00:37:38;;;;;;;58.23;31.70;;;;;;;-1.35;84.12;96002.05;1770660;80;21016;-81
2021/12/08 00:40:06;;;;;;;64.58;33.80;;;;;;;-1.40;84.09;95996.51;1776835;80;21330;-81
2021/12/08 00:42:31;;;;;;;72.40;34.27;;;;;;;-1.36;84.16;95993.25;1781233;79;21095;-81
2021/12/08 00:44:59;;;;;;;61.75;31.52;;;;;;;-1.37;84.08;95989.89;1778408;80;21090;-81
2021/12/08 00:47:27;;;;;;;57.50;30.68;;;;;;;-1.38;83.83;95992.10;1752381;80;21500;-81
2021/12/08 00:49:52;;;;;;;48.92;27.17;;;;;;;-1.44;83.53;95994.32;1771222;80;21496;-81
2021/12/08 00:52:19;;;;;;;58.65;29.05;;;;;;;-1.49;83.48;96000.21;1772860;80;20973;-81
2021/12/08 00:54:44;;;;;;;56.25;28.50;;;;;;;-1.53;83.64;96004.27;1770695;80;21382;-81
2021/12/08 00:57:10;;;;;;;56.10;26.07;;;;;;;-1.54;83.51;96006.94;1762673;80;20984;-81
2021/12/08 00:59:37;;;;;;;55.75;28.87;;;;;;;-1.55;83.57;96006.59;1752992;80;21397;-81
2021/12/08 01:02:04;;;;;;;52.08;26.85;;;;;;;-1.55;83.57;96010.42;1758562;80;21027;-81
2021/12/08 01:04:32;;;;;;;58.78;30.50;;;;;;;-1.58;83.54;96007.64;1775944;80;21018;-81
2021/12/08 01:07:00;;;;;;;60.12;28.83;;;;;;;-1.62;83.60;96013.91;1780017;80;21055;-81
2021/12/08 01:09:26;;;;;;;51.92;28.23;;;;;;;-1.64;83.50;96022.09;1771637;80;20996;-81
2021/12/08 01:11:52;;;;;;;48.28;25.23;;;;;;;-1.68;83.32;96021.18;1774974;80;21106;-81
2021/12/08 01:14:18;;;;;;;51.28;24.75;;;;;;;-1.69;83.24;96022.11;1765626;80;21146;-81
2021/12/08 01:16:45;;;;;;;52.13;27.98;;;;;;;-1.71;83.18;96018.41;1775354;80;21486;-82
2021/12/08 01:19:10;;;;;;;52.62;26.23;;;;;;;-1.74;83.03;96015.28;1780798;80;21094;-82
2021/12/08 01:21:36;;;;;;;48.98;24.65;;;;;;;-1.77;83.21;96018.88;1780085;79;21138;-81
2021/12/08 01:24:02;;;;;;;49.27;23.50;;;;;;;-1.81;83.03;96027.19;1769967;80;21501;-81
2021/12/08 01:26:29;;;;;;;50.15;27.40;;;;;;;-1.81;83.03;96027.19;1781421;80;20992;-81
2021/12/08 01:28:57;;;;;;;48.63;24.02;;;;;;;-1.86;82.78;96023.37;1775826;80;21385;-81
2021/12/08 01:31:24;;;;;;;49.70;25.95;;;;;;;-1.88;82.69;96017.58;1776908;80;21023;-81
2021/12/08 01:33:50;;;;;;;48.25;24.70;;;;;;;-1.92;82.59;96018.28;1776323;80;20983;-81
2021/12/08 01:36:16;;;;;;;51.73;25.85;;;;;;;-1.97;82.45;96015.24;1768022;80;20971;-81
2021/12/08 01:38:43;;;;;;;41.25;21.57;;;;;;;-2.00;82.40;96010.84;1767395;80;21433;-81
2021/12/08 01:41:09;;;;;;;42.65;22.85;;;;;;;-2.07;82.25;96000.31;1768005;79;21031;-81
2021/12/08 01:46:21;;;;;;;45.35;23.35;;;;;;;-2.15;82.12;95966.97;1773985;80;20960;-81
2021/12/08 01:48:47;;;;;;;41.63;23.18;;;;;;;-2.25;82.01;95959.22;1762514;80;21038;-81
2021/12/08 01:51:17;;;;;;;43.28;22.82;;;;;;;-2.30;82.05;95968.91;1751836;80;22141;-81
2021/12/08 01:53:47;;;;;;;47.43;26.93;;;;;;;-2.34;82.12;95967.52;1765696;79;21011;-81
2021/12/08 01:56:13;;;;;;;39.38;21.60;;;;;;;-2.38;82.20;95957.23;1761289;80;21099;-81
2021/12/08 01:58:39;;;;;;;45.17;22.02;;;;;;;-2.36;82.24;95949.48;1776114;80;20983;-81
2021/12/08 02:01:08;;;;;;;40.28;22.70;;;;;;;-2.41;81.93;95948.55;1764062;79;21422;-81
2021/12/08 02:03:35;;;;;;;58.02;26.02;;;;;;;-2.43;82.21;95951.67;1770858;80;21548;-81
2021/12/08 02:06:03;;;;;;;48.87;26.07;;;;;;;-2.40;82.54;95956.53;1760369;80;21083;-81
2021/12/08 02:08:28;;;;;;;57.25;27.62;;;;;;;-2.35;82.74;95958.27;1775069;80;21449;-81
2021/12/08 02:10:54;;;;;;;51.68;25.15;;;;;;;-2.36;82.54;95956.65;1766618;80;21072;-81
2021/12/08 02:13:20;;;;;;;48.73;26.33;;;;;;;-2.40;82.81;95955.26;1749730;80;21040;-81
2021/12/08 02:15:46;;;;;;;46.37;23.87;;;;;;;-2.40;82.79;95959.08;1765823;80;21082;-81
2021/12/08 02:18:14;;;;;;;47.93;25.45;;;;;;;-2.41;82.89;95960.00;1764470;80;21019;-81
2021/12/08 02:20:41;;;;;;;46.48;24.50;;;;;;;-2.38;82.87;95953.41;1775111;79;20996;-81
2021/12/08 02:23:07;;;;;;;45.48;21.87;;;;;;;-2.42;82.72;95944.39;1773466;80;21054;-81
2021/12/08 02:25:32;;;;;;;47.45;24.18;;;;;;;-2.51;82.42;95943.78;1766553;80;21491;-81
2021/12/08 02:28:00;;;;;;;54.40;25.02;;;;;;;-2.53;82.45;95939.27;1749430;81;20995;-81
2021/12/08 02:30:37;;;;;;;48.78;23.98;;;;;;;-2.57;82.31;95933.60;1767635;80;21011;-81
2021/12/08 02:49:07;;;;;;;34.38;18.75;;;;;;;-2.77;81.87;95910.90;1696634;80;20981;-81
2021/12/08 02:51:36;;;;;;;41.95;20.85;;;;;;;-2.76;81.87;95919.34;1766802;80;21406;-81
2021/12/08 02:54:01;;;;;;;40.05;21.80;;;;;;;-2.80;81.89;95925.08;1774630;80;20992;-81
2021/12/08 02:56:27;;;;;;;38.65;22.40;;;;;;;-2.79;82.25;95927.97;1760171;80;21381;-81
2021/12/08 02:58:52;;;;;;;47.35;22.52;;;;;;;-2.82;81.94;95923.58;1767522;80;21019;-81
2021/12/08 03:01:18;;;;;;;50.65;23.55;;;;;;;-2.86;82.25;95921.72;1770525;80;21087;-81
2021/12/08 03:03:44;;;;;;;50.92;24.00;;;;;;;-2.87;82.70;95919.30;1781528;80;21039;-81
2021/12/08 03:06:12;;;;;;;50.25;24.57;;;;;;;-2.86;82.84;95909.47;1769617;80;21107;-81
2021/12/08 03:08:38;;;;;;;48.25;24.60;;;;;;;-2.86;83.22;95900.58;1772913;80;21003;-81
2021/12/08 03:11:03;;;;;;;48.28;22.77;;;;;;;-2.83;83.25;95895.26;1776405;80;21019;-81
2021/12/08 03:13:45;;;;;;;42.48;20.88;;;;;;;-2.82;82.90;95886.70;1749708;80;21082;-81
2021/12/08 03:16:13;;;;;;;49.33;22.83;;;;;;;-2.85;82.81;95881.86;1751585;80;21043;-82
2021/12/08 03:18:40;;;;;;;47.93;23.22;;;;;;;-2.83;82.94;95877.47;1761736;80;21087;-82
2021/12/08 03:21:08;;;;;;;46.73;22.17;;;;;;;-2.81;83.04;95867.52;1776119;80;21134;-82
2021/12/08 03:23:50;;;;;;;46.80;24.25;;;;;;;-2.79;83.15;95865.67;1780685;80;20999;-82
2021/12/08 03:26:06;;;;;;;53.70;26.10;;;;;;;-2.78;83.10;95868.56;1772568;80;21453;-82
2021/12/08 03:28:35;;;;;;;50.83;23.32;;;;;;;-2.74;83.53;95861.55;1770831;80;21064;-82
2021/12/08 03:31:15;;;;;;;42.13;22.93;;;;;;;-2.74;83.55;95857.27;1757684;80;21035;-82
2021/12/08 03:33:34;;;;;;;53.78;27.17;;;;;;;-2.73;83.71;95855.53;1774430;80;21099;-82
2021/12/08 03:36:00;;;;;;;48.20;23.65;;;;;;;-2.76;83.57;95857.04;1780623;80;21000;-82
2021/12/08 03:38:26;;;;;;;46.37;23.42;;;;;;;-2.78;83.62;95855.84;1781663;80;21423;-82
2021/12/08 03:40:52;;;;;;;46.33;23.27;;;;;;;-2.79;83.54;95866.14;1782321;80;21071;-82
2021/12/08 03:43:18;;;;;;;53.85;25.50;;;;;;;-2.82;83.86;95859.55;1770690;80;21074;-82
2021/12/08 03:45:47;;;;;;;48.28;24.35;;;;;;;-2.80;84.08;95858.16;1770581;80;21068;-82
2021/12/08 03:48:24;;;;;;;52.23;26.50;;;;;;;-2.76;84.03;95857.84;1777187;80;21358;-82
2021/12/08 03:50:50;;;;;;;49.23;25.57;;;;;;;-2.75;83.93;95861.20;1765618;79;21019;-82
2021/12/08 03:53:16;;;;;;;45.92;22.55;;;;;;;-2.75;83.85;95861.20;1760554;80;21085;-82
2021/12/08 03:55:44;;;;;;;51.60;24.90;;;;;;;-2.76;83.78;95859.58;1775227;80;21432;-82
2021/12/08 03:58:11;;;;;;;50.20;25.17;;;;;;;-2.77;83.83;95862.59;1773733;80;21058;-82
2021/12/08 04:00:37;;;;;;;46.50;22.20;;;;;;;-2.79;83.81;95850.88;1775916;80;21062;-82
2021/12/08 04:03:06;;;;;;;43.60;21.33;;;;;;;-2.76;83.73;95852.77;1765237;80;21169;-82
2021/12/08 04:05:43;;;;;;;47.93;22.42;;;;;;;-2.79;83.54;95858.52;1761104;80;21002;-82
2021/12/08 04:08:04;;;;;;;41.37;21.87;;;;;;;-2.84;83.56;95859.31;1779006;80;21042;-82
2021/12/08 04:10:28;;;;;;;48.50;25.50;;;;;;;-2.81;83.58;95852.73;1765276;80;21027;-82
2021/12/08 04:12:54;;;;;;;44.83;23.60;;;;;;;-2.82;83.35;95850.65;1781223;80;20995;-83
2021/12/08 04:15:23;;;;;;;44.30;21.77;;;;;;;-2.79;83.18;95850.88;1756111;80;21059;-81
2021/12/08 04:17:51;;;;;;;43.45;20.12;;;;;;;-2.81;82.96;95860.36;1766004;80;21409;-82
2021/12/08 04:20:25;;;;;;;42.50;22.00;;;;;;;-2.82;82.96;95868.91;1751532;80;21075;-82
2021/12/08 04:22:53;;;;;;;42.10;21.55;;;;;;;-2.86;82.54;95869.60;1763393;80;21084;-82
2021/12/08 04:25:29;;;;;;;40.35;21.35;;;;;;;-2.88;82.37;95877.00;1763595;80;21023;-82
2021/12/08 04:27:58;;;;;;;42.33;20.75;;;;;;;-2.91;82.25;95875.95;1756170;80;21010;-82
2021/12/08 04:30:32;;;;;;;42.40;22.20;;;;;;;-2.93;82.03;95879.05;1768762;80;20983;-82
2021/12/08 04:32:57;;;;;;;41.23;22.77;;;;;;;-2.95;81.88;95878.34;1753503;80;21035;-82
2021/12/08 04:35:24;;;;;;;43.25;19.80;;;;;;;-2.97;81.61;95875.11;1753388;80;21059;-82
2021/12/08 04:37:53;;;;;;;39.85;19.48;;;;;;;-3.04;81.26;95868.40;1769716;80;21366;-82
2021/12/08 04:40:35;;;;;;;38.63;20.62;;;;;;;-3.12;81.09;95865.13;1764091;80;21082;-82
2021/12/08 04:43:07;;;;;;;40.43;19.80;;;;;;;-3.16;81.05;95857.84;1778967;79;21062;-82
2021/12/08 04:45:43;;;;;;;39.40;19.30;;;;;;;-3.24;80.88;95857.14;1750699;80;21049;-82
2021/12/08 05:01:34;;;;;;;95.17;54.95;;;;;;;-3.41;81.52;95867.70;1746359;80;21072;-82
2021/12/08 05:09:25;;;;;;;41.25;19.07;;;;;;;-3.46;81.60;95845.59;1717618;80;21462;-82
2021/12/08 05:12:00;;;;;;;36.53;18.77;;;;;;;-3.55;81.26;95828.03;1773265;80;21075;-82
2021/12/08 05:14:32;;;;;;;39.40;23.00;;;;;;;-3.70;81.25;95817.23;1765262;80;21016;-82
2021/12/08 05:17:02;;;;;;;35.68;21.87;;;;;;;-3.74;81.53;95823.91;1762746;80;20968;-82
2021/12/08 05:19:30;;;;;;;42.53;20.85;;;;;;;-3.78;81.92;95818.67;1778904;80;21024;-82
2021/12/08 05:22:08;;;;;;;43.35;26.07;;;;;;;-3.77;81.96;95825.37;1758448;80;21052;-82
2021/12/08 05:24:38;;;;;;;41.42;22.35;;;;;;;-3.80;81.85;95834.47;1779100;80;21075;-82
2021/12/08 05:27:09;;;;;;;41.13;21.73;;;;;;;-3.87;81.86;95821.41;1763533;80;21092;-82
2021/12/08 05:29:41;;;;;;;42.62;21.20;;;;;;;-3.93;82.01;95824.36;1767577;80;21150;-82
2021/12/08 05:32:07;;;;;;;44.18;22.65;;;;;;;-3.97;82.03;95810.27;1750094;80;21410;-82
2021/12/08 05:34:33;;;;;;;42.95;23.45;;;;;;;-3.98;82.12;95806.92;1764366;80;20980;-82
2021/12/08 05:37:00;;;;;;;46.20;22.87;;;;;;;-4.00;82.06;95802.41;1757905;80;21035;-82
2021/12/08 05:39:29;;;;;;;44.20;21.25;;;;;;;-4.02;82.02;95800.45;1765321;80;21015;-82
2021/12/08 05:42:02;;;;;;;39.50;20.52;;;;;;;-4.02;81.92;95801.71;1774985;80;21004;-82
2021/12/08 05:44:28;;;;;;;40.05;20.97;;;;;;;-4.09;82.01;95806.03;1779232;80;21032;-81
2021/12/08 05:46:56;;;;;;;40.08;19.82;;;;;;;-4.06;82.86;95813.00;1774713;80;20977;-82
2021/12/08 05:49:23;;;;;;;34.98;18.32;;;;;;;-4.09;82.76;95813.19;1782369;80;20996;-82
2021/12/08 05:51:50;;;;;;;38.83;19.98;;;;;;;-4.10;83.20;95817.91;1779480;80;20964;-82
2021/12/08 05:54:32;;;;;;;41.75;19.73;;;;;;;-4.06;83.30;95816.80;1778109;80;21009;-82
2021/12/08 05:57:09;;;;;;;33.88;19.42;;;;;;;-4.04;83.02;95813.70;1774446;79;21043;-82
2021/12/08 05:59:35;;;;;;;32.85;17.40;;;;;;;-4.01;82.99;95806.33;1751603;80;21048;-82
2021/12/08 06:02:06;;;;;;;41.15;21.48;;;;;;;-3.96;82.68;95809.34;1773140;80;21046;-82
2021/12/08 06:04:32;;;;;;;36.15;17.82;;;;;;;-4.02;82.51;95805.52;1774713;80;21034;-82
2021/12/08 06:06:58;;;;;;;32.00;16.95;;;;;;;-4.04;82.28;95807.81;1765196;79;21015;-82
2021/12/08 06:09:25;;;;;;;32.23;17.37;;;;;;;-4.05;82.29;95801.13;1761932;80;21087;-81
2021/12/08 06:11:51;;;;;;;29.18;15.95;;;;;;;-4.00;82.69;95797.34;1764225;80;21106;-82
2021/12/08 06:14:19;;;;;;;27.85;15.72;;;;;;;-3.96;82.60;95792.85;1775495;80;21161;-82
2021/12/08 06:16:46;;;;;;;31.02;18.95;;;;;;;-3.91;82.46;95794.60;1781001;80;21067;-82
2021/12/08 06:19:12;;;;;;;27.52;15.25;;;;;;;-3.98;82.26;95790.42;1775975;80;21012;-82
2021/12/08 06:21:38;;;;;;;28.35;15.63;;;;;;;-4.00;82.29;95782.57;1755610;80;21802;-82
2021/12/08 06:24:07;;;;;;;28.60;16.12;;;;;;;-3.95;82.23;95781.32;1771508;80;20980;-81
2021/12/08 06:26:33;;;;;;;23.98;15.55;;;;;;;-3.92;82.41;95773.95;1749008;80;21123;-82
2021/12/08 06:28:59;;;;;;;36.13;18.92;;;;;;;-3.90;81.91;95776.41;1765278;80;21055;-82
2021/12/08 06:31:26;;;;;;;26.40;16.00;;;;;;;-3.94;82.24;95785.48;1776401;80;21477;-82
2021/12/08 06:33:53;;;;;;;31.77;16.48;;;;;;;-3.90;82.28;95784.83;1764722;80;21051;-82
2021/12/08 06:36:27;;;;;;;25.05;15.58;;;;;;;-3.86;82.23;95793.84;1755539;80;21339;-82
2021/12/08 06:38:53;;;;;;;30.50;15.98;;;;;;;-3.83;82.06;95786.00;1751567;80;21004;-82
2021/12/08 06:41:29;;;;;;;38.15;21.07;;;;;;;-3.83;81.87;95787.27;1757586;80;21453;-82
2021/12/08 06:44:01;;;;;;;32.17;17.57;;;;;;;-3.84;81.99;95789.92;1780691;80;21071;-82
2021/12/08 06:46:27;;;;;;;36.13;17.87;;;;;;;-3.87;82.19;95779.98;1773130;80;21020;-81
2021/12/08 06:48:56;;;;;;;28.42;15.45;;;;;;;-3.87;82.31;95793.95;1751427;80;21066;-82
2021/12/08 06:51:27;;;;;;;28.45;15.35;;;;;;;-3.85;82.32;95799.72;1770549;80;20996;-81
2021/12/08 06:53:58;;;;;;;35.23;15.80;;;;;;;-3.80;82.33;95803.55;1772418;80;21019;-81
2021/12/08 06:56:32;;;;;;;31.57;17.45;;;;;;;-3.77;82.11;95802.06;1770542;80;21309;-80
2021/12/08 06:59:02;;;;;;;31.27;17.02;;;;;;;-3.72;82.12;95801.30;1760203;80;21043;-80
2021/12/08 07:01:46;;;;;;;36.50;17.85;;;;;;;-3.67;82.01;95790.80;1767470;80;21027;-81
2021/12/08 07:04:41;;;;;;;31.57;17.27;;;;;;;-3.64;81.81;95784.23;1775130;80;21004;-80
2021/12/08 07:07:15;;;;;;;28.05;16.17;;;;;;;-3.64;81.63;95791.39;1773431;80;21043;-80
2021/12/08 07:09:54;;;;;;;28.77;17.77;;;;;;;-3.69;81.65;95794.73;1770040;80;21132;-80
2021/12/08 07:12:31;;;;;;;28.20;16.87;;;;;;;-3.69;81.60;95792.64;1751847;80;21095;-80
2021/12/08 07:15:21;;;;;;;31.12;18.85;;;;;;;-3.66;81.57;95784.80;1747957;80;21012;-80
2021/12/08 07:17:51;;;;;;;28.00;15.83;;;;;;;-3.64;81.46;95793.13;1759007;80;20996;-80
2021/12/08 07:22:54;;;;;;;36.95;18.80;;;;;;;-3.65;81.19;95801.20;1749794;80;21004;-80
2021/12/08 07:25:24;;;;;;;35.48;19.75;;;;;;;-3.66;81.40;95806.39;1769479;80;21015;-80
2021/12/08 07:27:52;;;;;;;31.42;17.42;;;;;;;-3.62;81.57;95805.24;1764498;80;21036;-80
2021/12/08 07:30:23;;;;;;;34.20;18.92;;;;;;;-3.63;81.22;95813.32;1782506;80;20956;-80
2021/12/08 07:32:49;;;;;;;23.10;12.80;;;;;;;-3.60;81.40;95811.48;1779718;80;21004;-80
2021/12/08 07:35:21;;;;;;;26.97;15.65;;;;;;;-3.58;81.16;95808.37;1755049;80;20969;-80
2021/12/08 07:37:47;;;;;;;27.75;15.58;;;;;;;-3.56;81.04;95804.83;1778791;80;21411;-80
2021/12/08 07:40:29;;;;;;;29.67;14.35;;;;;;;-3.56;80.65;95801.48;1749936;80;21039;-80
2021/12/08 07:43:02;;;;;;;28.38;16.35;;;;;;;-3.58;80.46;95809.64;1752734;80;21019;-80
2021/12/08 07:45:35;;;;;;;29.45;14.95;;;;;;;-3.59;80.45;95811.83;1761538;80;21039;-80
2021/12/08 07:48:06;;;;;;;31.97;16.77;;;;;;;-3.61;80.31;95815.75;1779770;80;21103;-80
2021/12/08 07:50:49;;;;;;;42.08;19.30;;;;;;;-3.58;80.37;95816.83;1768327;80;21024;-80
2021/12/08 07:53:16;;;;;;;38.38;20.68;;;;;;;-3.56;80.33;95811.63;1757926;80;21311;-80
2021/12/08 07:55:46;;;;;;;40.73;20.08;;;;;;;-3.56;80.18;95814.17;1735576;80;21072;-80
2021/12/08 07:58:12;;;;;;;28.42;16.73;;;;;;;-3.55;80.02;95817.06;1778053;80;21070;-80
2021/12/08 08:00:46;;;;;;;27.40;15.80;;;;;;;-3.58;79.83;95815.98;1769855;80;21447;-80
2021/12/08 08:03:13;;;;;;;37.00;18.55;;;;;;;-3.59;79.85;95820.25;1777825;79;21059;-80
2021/12/08 08:05:39;;;;;;;37.78;19.48;;;;;;;-3.60;79.67;95811.48;1775922;80;21374;-80
2021/12/08 08:08:09;;;;;;;42.25;21.55;;;;;;;-3.63;79.68;95812.52;1754780;80;21015;-80
2021/12/08 08:10:41;;;;;;;37.65;18.67;;;;;;;-3.66;79.65;95817.81;1749293;80;21008;-80
2021/12/08 08:13:08;;;;;;;26.48;14.90;;;;;;;-3.66;79.71;95820.35;1767533;80;20969;-80
2021/12/08 08:15:37;;;;;;;27.90;14.65;;;;;;;-3.70;79.57;95823.57;1780195;80;20976;-80
2021/12/08 08:18:06;;;;;;;24.75;14.40;;;;;;;-3.71;79.62;95821.95;1790595;79;21359;-80
2021/12/08 08:20:34;;;;;;;26.30;14.75;;;;;;;-3.70;79.69;95818.50;1792150;80;21059;-81
2021/12/08 08:23:00;;;;;;;24.85;13.58;;;;;;;-3.70;79.65;95817.23;1793103;80;21306;-80
2021/12/08 08:25:32;;;;;;;25.45;14.85;;;;;;;-3.71;79.57;95816.87;1755433;80;21043;-80
2021/12/08 08:27:58;;;;;;;25.60;13.80;;;;;;;-3.69;79.63;95816.77;1791105;80;20992;-80
2021/12/08 08:30:29;;;;;;;24.20;13.58;;;;;;;-3.65;79.73;95824.51;1792677;79;21058;-81
2021/12/08 08:32:56;;;;;;;24.15;15.50;;;;;;;-3.60;79.60;95819.09;1796326;79;21426;-80
2021/12/08 08:35:36;;;;;;;23.38;11.88;;;;;;;-3.60;79.59;95816.55;1789059;79;21069;-80
2021/12/08 08:38:07;;;;;;;21.42;12.75;;;;;;;-3.60;79.50;95813.56;1789519;79;21035;-80
2021/12/08 08:40:41;;;;;;;19.92;10.28;;;;;;;-3.56;79.64;95814.98;1794239;80;20993;-80
2021/12/08 08:43:08;;;;;;;21.57;12.47;;;;;;;-3.55;79.60;95813.25;1793488;80;21062;-81
2021/12/08 08:45:42;;;;;;;23.90;12.85;;;;;;;-3.54;79.61;95813.60;1791445;78;21077;-80
2021/12/08 08:48:15;;;;;;;26.20;14.75;;;;;;;-3.51;79.48;95816.73;1793350;80;21039;-80
2021/12/08 08:50:55;;;;;;;27.40;16.87;;;;;;;-3.54;79.37;95822.03;1793300;80;21043;-80
2021/12/08 08:53:23;;;;;;;28.40;18.73;;;;;;;-3.51;79.44;95828.62;1793393;79;20985;-80
2021/12/08 08:56:01;;;;;;;29.77;15.78;;;;;;;-3.49;79.45;95817.88;1790644;79;20996;-80
2021/12/08 08:58:30;;;;;;;31.68;16.60;;;;;;;-3.50;79.42;95823.42;1787796;80;21334;-80
2021/12/08 09:01:01;;;;;;;29.92;17.27;;;;;;;-3.49;79.52;95818.69;1793491;80;21001;-80
2021/12/08 09:03:29;;;;;;;30.97;17.67;;;;;;;-3.44;79.63;95809.00;1789294;79;21038;-80
2021/12/08 09:06:00;;;;;;;33.48;16.57;;;;;;;-3.42;79.50;95803.81;1791612;78;21175;-80
2021/12/08 09:08:30;;;;;;;32.90;16.23;;;;;;;-3.40;79.44;95803.27;1793318;79;21053;-80
2021/12/08 09:11:10;;;;;;;29.72;17.70;;;;;;;-3.38;79.38;95803.50;1792967;80;21028;-80
2021/12/08 09:13:40;;;;;;;32.98;18.32;;;;;;;-3.33;79.45;95814.59;1791948;79;20997;-80
2021/12/08 09:16:11;;;;;;;33.15;18.27;;;;;;;-3.23;79.54;95818.56;1791351;80;20997;-80
2021/12/08 09:19:00;;;;;;;23.07;14.23;;;;;;;-3.14;79.51;95816.61;1784840;80;20983;-80
2021/12/08 09:21:45;;;;;;;27.67;15.20;;;;;;;-3.09;79.54;95817.11;1794549;79;21499;-80
2021/12/08 09:24:17;;;;;;;23.50;13.80;;;;;;;-3.06;79.20;95817.68;1794517;80;21012;-80
2021/12/08 09:26:51;;;;;;;29.45;16.57;;;;;;;-3.02;79.38;95815.26;1772634;79;20984;-80
2021/12/08 09:29:31;;;;;;;38.63;22.82;;;;;;;-2.97;79.26;95819.19;1792518;79;21028;-80
2021/12/08 09:32:06;;;;;;;42.15;24.07;;;;;;;-2.94;79.19;95808.79;1793527;80;20989;-80
2021/12/08 09:34:40;;;;;;;36.98;20.20;;;;;;;-2.91;79.21;95811.94;1794244;79;21040;-80
2021/12/08 09:37:19;;;;;;;25.15;14.45;;;;;;;-2.86;79.19;95813.67;1787929;79;21031;-79
2021/12/08 09:39:53;;;;;;;30.90;17.20;;;;;;;-2.83;79.09;95798.64;1789297;79;21477;-80
2021/12/08 09:42:31;;;;;;;33.80;20.37;;;;;;;-2.78;79.25;95806.73;1794202;79;20969;-80
2021/12/08 09:45:25;;;;;;;37.20;20.95;;;;;;;-2.73;79.29;95804.67;1789279;80;20990;-79
2021/12/08 09:47:51;;;;;;;35.03;21.30;;;;;;;-2.68;79.22;95796.23;1778564;79;21090;-79
2021/12/08 09:50:17;;;;;;;24.92;14.23;;;;;;;-2.63;79.31;95792.88;1794110;79;21131;-79
2021/12/08 09:52:44;;;;;;;28.23;16.65;;;;;;;-2.63;79.16;95781.42;1794111;80;21088;-80
2021/12/08 09:55:12;;;;;;;31.82;18.32;;;;;;;-2.57;79.35;95780.17;1795603;79;21092;-80
2021/12/08 09:57:39;;;;;;;27.82;17.37;;;;;;;-2.49;79.49;95781.20;1795107;80;21486;-80
2021/12/08 10:00:08;;;;;;;31.33;18.20;;;;;;;-2.40;79.33;95772.07;1791292;79;20977;-79
2021/12/08 10:02:35;;;;;;;37.17;18.77;;;;;;;-2.35;79.14;95772.52;1794421;79;21036;-79
2021/12/08 10:05:11;;;;;;;32.15;18.70;;;;;;;-2.29;79.13;95771.23;1792513;78;21085;-80
2021/12/08 10:07:38;;;;;;;28.25;15.08;;;;;;;-2.21;79.06;95782.92;1790277;79;21082;-79
2021/12/08 10:10:05;;;;;;;26.23;15.50;;;;;;;-2.17;78.86;95783.02;1790523;80;21488;-79
2021/12/08 10:12:34;;;;;;;26.77;15.43;;;;;;;-2.10;79.09;95776.55;1794764;80;21009;-80
2021/12/08 10:14:59;;;;;;;25.32;14.47;;;;;;;-2.04;79.08;95776.52;1793630;80;20965;-80
2021/12/08 10:17:24;;;;;;;22.62;14.45;;;;;;;-1.99;79.08;95775.69;1790710;80;21058;-80
2021/12/08 10:20:20;;;;;;;27.52;17.20;;;;;;;-1.95;79.19;95770.72;1791285;79;21003;-80
2021/12/08 10:22:51;;;;;;;31.73;18.52;;;;;;;-1.85;79.21;95766.05;1793480;79;21027;-79
2021/12/08 10:25:21;;;;;;;39.90;23.77;;;;;;;-1.74;79.18;95759.30;1788058;80;21135;-80
2021/12/08 10:28:13;;;;;;;54.65;30.30;;;;;;;-1.68;79.10;95760.09;1753244;79;21012;-80
2021/12/08 10:31:18;;;;;;;44.38;26.60;;;;;;;-1.62;79.05;95758.34;1774628;80;21027;-80
2021/12/08 10:36:59;;;;;;;34.30;20.97;;;;;;;-1.60;78.69;95744.55;1760195;79;21087;-80
2021/12/08 10:39:46;;;;;;;31.97;19.77;;;;;;;-1.64;78.59;95739.80;1759567;80;20976;-80
2021/12/08 10:42:28;;;;;;;38.58;20.45;;;;;;;-1.55;78.99;95741.16;1755570;80;21449;-79
2021/12/08 10:47:54;;;;;;;30.62;18.60;;;;;;;-1.39;79.05;95733.09;1758860;80;21086;-80
2021/12/08 10:55:59;;;;;;;37.78;21.90;;;;;;;-1.33;78.68;95710.11;1775907;80;21087;-80
2021/12/08 10:58:28;;;;;;;31.73;20.85;;;;;;;-1.33;78.79;95717.28;1771351;80;21019;-80
2021/12/08 11:00:56;;;;;;;32.88;19.77;;;;;;;-1.30;79.08;95706.87;1781233;80;22114;-80
2021/12/08 11:03:22;;;;;;;40.05;24.65;;;;;;;-1.27;78.90;95712.17;1780971;80;21027;-80
2021/12/08 11:05:56;;;;;;;40.43;24.65;;;;;;;-1.27;78.92;95714.72;1757448;80;21414;-80
2021/12/08 11:08:27;;;;;;;37.90;22.13;;;;;;;-1.18;79.17;95711.88;1760311;80;21146;-80
2021/12/08 11:11:06;;;;;;;44.70;27.22;;;;;;;-1.04;79.46;95708.53;1754805;80;21099;-79
2021/12/08 11:13:43;;;;;;;48.38;28.73;;;;;;;-0.89;79.27;95709.00;1760142;80;21075;-79
2021/12/08 11:16:19;;;;;;;49.13;28.83;;;;;;;-0.80;78.97;95708.72;1780523;80;21003;-80
2021/12/08 11:18:58;;;;;;;56.28;32.58;;;;;;;-0.88;78.39;95694.50;1771560;80;21010;-80
2021/12/08 11:21:31;;;;;;;54.85;32.93;;;;;;;-0.86;78.79;95701.09;1760664;80;21051;-80
2021/12/08 11:23:56;;;;;;;58.77;35.03;;;;;;;-0.77;78.95;95696.51;1781928;80;21091;-80
2021/12/08 11:26:29;;;;;;;53.80;32.53;;;;;;;-0.68;78.91;95693.63;1781164;80;21062;-80
2021/12/08 11:29:09;;;;;;;53.38;29.15;;;;;;;-0.64;78.80;95691.99;1781488;80;21003;-80
2021/12/08 11:31:54;;;;;;;52.05;31.65;;;;;;;-0.71;78.38;95694.70;1779099;80;21078;-80
2021/12/08 11:34:30;;;;;;;52.10;32.63;;;;;;;-0.65;78.59;95691.66;1768199;80;21027;-81
2021/12/08 11:37:08;;;;;;;50.25;30.08;;;;;;;-0.61;78.69;95690.92;1757986;80;21099;-80
2021/12/08 11:39:38;;;;;;;44.30;26.52;;;;;;;-0.54;78.42;95688.64;1764168;80;20996;-80
2021/12/08 11:42:10;;;;;;;46.28;26.48;;;;;;;-0.54;78.34;95685.63;1780005;80;21408;-80
2021/12/08 11:44:39;;;;;;;;;;;;;;;-0.55;78.31;95685.28;1770703;80;20999;-79
2021/12/08 11:47:10;;;;;;;39.00;21.45;;;;;;;-0.51;78.43;95684.55;1775999;80;20112;-80
2021/12/08 11:49:43;;;;;;;35.88;20.55;;;;;;;-0.50;78.27;95687.44;1769894;80;21166;-80
2021/12/08 11:52:13;;;;;;;24.63;17.00;;;;;;;-0.52;78.05;95680.39;1765656;80;21125;-80
2021/12/08 11:54:56;;;;;;;24.30;16.80;;;;;;;-0.55;77.82;95676.83;1762274;80;21112;-79
2021/12/08 11:57:36;;;;;;;25.40;16.30;;;;;;;-0.58;77.82;95675.81;1760310;80;21413;-80
2021/12/08 12:00:10;;;;;;;31.52;18.87;;;;;;;-0.58;78.05;95669.44;1778308;80;21409;-80
2021/12/08 12:02:52;;;;;;;32.90;22.60;;;;;;;-0.56;77.78;95676.48;1776645;80;21165;-80
2021/12/08 12:05:18;;;;;;;41.70;24.52;;;;;;;-0.55;77.71;95671.72;1774062;80;22050;-80
2021/12/08 12:07:44;;;;;;;46.70;30.60;;;;;;;-0.51;77.85;95662.86;1773035;80;21039;-80
2021/12/08 12:10:13;;;;;;;47.83;27.90;;;;;;;-0.51;78.05;95661.58;1757652;80;20999;-80
2021/12/08 12:12:41;;;;;;;50.40;29.95;;;;;;;-0.51;78.11;95659.03;1775196;80;21409;-80
2021/12/08 12:15:12;;;;;;;46.68;29.35;;;;;;;-0.51;77.94;95656.01;1780972;80;20952;-80
2021/12/08 12:17:37;;;;;;;52.90;31.77;;;;;;;-0.53;77.79;95659.64;1778685;80;20992;-80
2021/12/08 12:20:27;;;;;;;49.33;32.10;;;;;;;-0.55;78.49;95662.79;1780134;80;21042;-80
2021/12/08 12:23:49;;;;;;;51.05;30.40;;;;;;;-0.56;78.64;95666.28;1780731;80;21367;-80
2021/12/08 12:26:29;;;;;;;58.85;33.13;;;;;;;-0.55;78.39;95665.34;1748854;80;21090;-81